createdAt,value
2018-09-19T00:01:04.413Z,52.40
2018-09-19T00:03:32.703Z,52.40
2018-09-19T00:06:00.987Z,52.60
2018-09-19T00:08:29.259Z,52.60
2018-09-19T00:10:57.527Z,52.70
2018-09-19T00:13:25.913Z,52.80
2018-09-19T00:15:54.253Z,52.80
2018-09-19T00:18:22.562Z,52.90
2018-09-19T00:20:50.870Z,53.00
2018-09-19T00:23:19.091Z,53.20
2018-09-19T00:25:47.333Z,53.10
2018-09-19T00:28:15.525Z,53.10
2018-09-19T00:30:43.731Z,53.10
2018-09-19T00:33:11.973Z,53.10
2018-09-19T00:35:40.325Z,53.70
2018-09-19T00:38:08.539Z,54.30
2018-09-19T00:40:37.153Z,54.60
2018-09-19T00:43:05.415Z,54.70
2018-09-19T00:45:33.711Z,55.00
2018-09-19T00:48:02.040Z,55.40
2018-09-19T00:50:30.345Z,55.40
2018-09-19T00:52:58.674Z,55.50
2018-09-19T00:55:26.988Z,55.50
2018-09-19T00:57:55.224Z,55.90
2018-09-19T01:00:23.729Z,55.90
2018-09-19T01:02:51.941Z,56.30
2018-09-19T01:05:20.229Z,56.40
2018-09-19T01:07:48.556Z,56.80
2018-09-19T01:10:16.776Z,57.70
2018-09-19T01:12:45.019Z,58.00
2018-09-19T01:15:13.263Z,58.10
2018-09-19T01:17:41.507Z,57.90
2018-09-19T01:20:09.777Z,57.90
2018-09-19T01:22:38.032Z,58.90
2018-09-19T01:25:06.277Z,59.60
2018-09-19T01:27:34.890Z,59.90
2018-09-19T01:30:03.127Z,60.00
2018-09-19T01:32:31.343Z,60.40
2018-09-19T01:34:59.593Z,60.80
2018-09-19T01:37:27.913Z,61.10
2018-09-19T01:39:56.141Z,61.20
2018-09-19T01:42:24.337Z,61.10
2018-09-19T01:44:52.563Z,60.70
2018-09-19T01:47:20.770Z,60.50
2018-09-19T01:49:48.972Z,60.20
2018-09-19T01:52:17.209Z,60.10
2018-09-19T01:54:45.478Z,60.00
2018-09-19T01:57:13.819Z,60.70
2018-09-19T01:59:42.053Z,61.50
2018-09-19T02:02:10.302Z,61.40
2018-09-19T02:04:38.489Z,61.70
2018-09-19T02:07:06.786Z,62.30
2018-09-19T02:09:34.987Z,63.00
2018-09-19T02:12:03.278Z,62.90
2018-09-19T02:14:31.510Z,62.50
2018-09-19T02:16:59.745Z,62.30
2018-09-19T02:19:27.995Z,62.60
2018-09-19T02:21:56.653Z,63.10
2018-09-19T02:24:24.879Z,63.50
2018-09-19T02:26:53.134Z,63.60
2018-09-19T02:29:21.353Z,64.30
2018-09-19T02:31:55.914Z,64.70
2018-09-19T02:34:24.251Z,64.90
2018-09-19T02:36:52.454Z,65.20
2018-09-19T02:39:20.721Z,65.70
2018-09-19T02:41:49.009Z,65.90
2018-09-19T02:44:17.240Z,65.90
2018-09-19T02:46:45.581Z,65.60
2018-09-19T02:49:13.847Z,65.40
2018-09-19T02:51:42.070Z,65.00
2018-09-19T02:54:10.345Z,64.90
2018-09-19T02:56:38.680Z,64.80
2018-09-19T02:59:06.936Z,64.70
2018-09-19T03:01:35.196Z,64.70
2018-09-19T03:04:04.495Z,65.00
2018-09-19T03:06:32.794Z,65.40
2018-09-19T03:09:01.060Z,65.80
2018-09-19T03:11:29.371Z,65.90
2018-09-19T03:13:57.613Z,65.80
2018-09-19T03:16:25.883Z,66.00
2018-09-19T03:18:54.362Z,66.30
2018-09-19T03:21:22.612Z,66.50
2018-09-19T03:23:50.813Z,66.70
2018-09-19T03:26:19.014Z,66.90
2018-09-19T03:28:47.669Z,66.80
2018-09-19T03:34:28.376Z,66.30
2018-09-19T03:36:56.609Z,65.80
2018-09-19T03:39:24.826Z,66.20
2018-09-19T03:41:59.461Z,65.90
2018-09-19T03:44:27.735Z,68.60
2018-09-19T03:46:57.728Z,69.40
2018-09-19T03:49:25.987Z,69.50
2018-09-19T03:51:54.547Z,68.40
2018-09-19T03:54:22.772Z,69.20
2018-09-19T03:56:51.085Z,70.00
2018-09-19T03:59:19.647Z,69.90
2018-09-19T04:01:47.923Z,69.60
2018-09-19T04:04:16.191Z,70.10
2018-09-19T04:06:44.394Z,70.30
2018-09-19T04:09:13.797Z,69.20
2018-09-19T04:11:42.043Z,68.50
2018-09-19T04:14:11.322Z,68.90
2018-09-19T04:16:39.786Z,68.30
2018-09-19T04:19:08.009Z,67.70
2018-09-19T04:21:40.565Z,67.10
2018-09-19T04:24:08.947Z,67.00
2018-09-19T04:26:37.494Z,67.10
2018-09-19T04:29:06.013Z,66.20
2018-09-19T04:31:34.286Z,66.00
2018-09-19T04:34:02.570Z,66.00
2018-09-19T04:36:30.788Z,65.80
2018-09-19T04:38:59.015Z,65.30
2018-09-19T04:41:27.299Z,65.40
2018-09-19T04:43:55.513Z,66.20
2018-09-19T04:46:23.759Z,66.10
2018-09-19T04:48:51.947Z,66.10
2018-09-19T04:51:20.172Z,66.00
2018-09-19T04:53:55.038Z,66.70
2018-09-19T04:56:23.307Z,66.40
2018-09-19T04:58:51.637Z,66.80
2018-09-19T05:01:19.879Z,66.90
2018-09-19T05:03:48.120Z,67.70
2018-09-19T05:06:16.326Z,67.80
2018-09-19T05:08:44.562Z,68.30
2018-09-19T05:11:12.784Z,67.50
2018-09-19T05:13:41.135Z,67.20
2018-09-19T05:16:09.359Z,67.10
2018-09-19T05:18:37.729Z,67.00
2018-09-19T05:21:06.041Z,67.20
2018-09-19T05:23:34.319Z,67.50
2018-09-19T05:26:02.497Z,67.60
2018-09-19T05:28:30.870Z,67.90
2018-09-19T05:30:59.318Z,68.00
2018-09-19T05:33:27.517Z,68.50
2018-09-19T05:35:55.818Z,68.50
2018-09-19T05:38:24.049Z,68.50
2018-09-19T05:40:52.264Z,68.50
2018-09-19T05:43:20.504Z,68.40
2018-09-19T05:45:48.825Z,68.50
2018-09-19T05:48:17.073Z,69.10
2018-09-19T05:50:45.253Z,69.20
2018-09-19T05:53:13.555Z,67.90
2018-09-19T05:55:41.793Z,67.80
2018-09-19T05:58:09.987Z,67.30
2018-09-19T06:00:38.258Z,67.60
2018-09-19T06:03:06.524Z,67.30
2018-09-19T06:05:34.810Z,67.10
2018-09-19T06:08:02.980Z,66.80
2018-09-19T06:10:31.277Z,66.20
2018-09-19T06:12:59.550Z,66.10
2018-09-19T06:15:27.722Z,65.50
2018-09-19T06:17:55.957Z,65.10
2018-09-19T06:20:24.193Z,64.80
2018-09-19T06:22:52.433Z,64.50
2018-09-19T06:25:20.756Z,64.10
2018-09-19T06:27:49.243Z,63.00
2018-09-19T06:30:17.492Z,61.80
2018-09-19T06:32:45.746Z,60.70
2018-09-19T06:35:15.964Z,60.10
2018-09-19T06:37:50.812Z,59.10
2018-09-19T06:40:19.049Z,58.40
2018-09-19T06:42:47.260Z,56.60
2018-09-19T06:45:15.467Z,55.70
2018-09-19T06:47:43.712Z,55.70
2018-09-19T06:50:11.990Z,55.30
2018-09-19T06:52:40.281Z,54.30
2018-09-19T06:55:08.508Z,53.20
2018-09-19T06:57:36.817Z,52.70
2018-09-19T07:00:05.604Z,51.40
2018-09-19T07:02:33.881Z,50.70
2018-09-19T07:05:02.107Z,50.10
2018-09-19T07:07:30.330Z,49.70
2018-09-19T07:09:58.609Z,49.50
2018-09-19T07:12:26.843Z,48.80
2018-09-19T07:14:55.056Z,47.80
2018-09-19T07:17:23.358Z,46.80
2018-09-19T07:19:51.576Z,46.40
2018-09-19T07:22:19.765Z,45.50
2018-09-19T07:24:48.089Z,45.10
2018-09-19T07:27:16.312Z,44.90
2018-09-19T07:29:44.567Z,44.40
2018-09-19T07:32:12.871Z,43.60
2018-09-19T07:34:41.173Z,43.10
2018-09-19T07:37:09.458Z,42.00
2018-09-19T07:39:37.645Z,41.60
2018-09-19T07:42:05.891Z,42.10
2018-09-19T07:44:34.465Z,41.80
2018-09-19T07:47:02.692Z,41.00
2018-09-19T07:49:31.060Z,41.70
2018-09-19T07:51:59.275Z,41.30
2018-09-19T07:54:27.506Z,39.40
2018-09-19T07:56:55.781Z,39.50
2018-09-19T07:59:24.034Z,39.90
2018-09-19T08:01:52.248Z,39.30
2018-09-19T08:04:20.404Z,39.30
2018-09-19T08:06:48.623Z,38.10
2018-09-19T08:09:16.932Z,37.70
2018-09-19T08:11:45.159Z,37.40
2018-09-19T08:14:13.475Z,36.80
2018-09-19T08:16:41.711Z,35.60
2018-09-19T08:19:10.144Z,35.10
2018-09-19T08:21:38.428Z,35.20
2018-09-19T08:24:06.657Z,35.40
2018-09-19T08:26:34.930Z,35.20
2018-09-19T08:29:03.078Z,34.40
2018-09-19T08:31:31.287Z,34.40
2018-09-19T08:33:59.488Z,33.60
2018-09-19T08:36:27.742Z,32.30
2018-09-19T08:38:55.996Z,32.10
2018-09-19T08:41:24.241Z,31.20
2018-09-19T08:43:52.486Z,30.70
2018-09-19T08:46:20.704Z,31.00
2018-09-19T08:48:48.927Z,31.40
2018-09-19T08:51:17.141Z,31.60
2018-09-19T08:53:45.352Z,32.30
2018-09-19T08:56:13.562Z,31.00
2018-09-19T08:58:41.812Z,31.80
2018-09-19T09:01:10.074Z,32.00
2018-09-19T09:03:38.294Z,31.80
2018-09-19T09:06:06.607Z,31.80
2018-09-19T09:08:34.797Z,32.90
2018-09-19T09:11:02.988Z,33.00
2018-09-19T09:13:31.299Z,33.50
2018-09-19T09:15:59.530Z,33.00
2018-09-19T09:18:27.754Z,33.40
2018-09-19T09:20:56.134Z,32.80
2018-09-19T09:23:24.450Z,32.50
2018-09-19T09:25:52.653Z,33.30
2018-09-19T09:28:20.910Z,32.70
2018-09-19T09:30:49.099Z,32.70
2018-09-19T09:33:17.699Z,33.50
2018-09-19T09:35:45.918Z,33.80
2018-09-19T09:38:14.192Z,34.30
2018-09-19T09:40:42.594Z,36.20
2018-09-19T09:43:10.806Z,37.40
2018-09-19T09:45:39.127Z,36.80
2018-09-19T09:48:07.549Z,35.60
2018-09-19T09:50:35.800Z,37.00
2018-09-19T09:53:04.229Z,36.60
2018-09-19T09:55:32.509Z,37.10
2018-09-19T09:58:00.799Z,37.40
2018-09-19T10:00:34.533Z,39.10
2018-09-19T10:03:02.840Z,39.90
2018-09-19T10:05:31.183Z,39.70
2018-09-19T10:07:59.385Z,38.90
2018-09-19T10:10:27.600Z,38.00
2018-09-19T10:12:55.839Z,39.70
2018-09-19T10:15:24.117Z,39.90
2018-09-19T10:17:52.512Z,39.70
2018-09-19T10:20:20.734Z,39.80
2018-09-19T10:22:48.977Z,39.90
2018-09-19T10:25:17.211Z,42.80
2018-09-19T10:27:45.449Z,48.20
2018-09-19T10:30:13.748Z,50.90
2018-09-19T10:32:42.152Z,55.00
2018-09-19T10:35:10.411Z,57.80
2018-09-19T10:37:38.611Z,55.70
2018-09-19T10:40:06.981Z,54.20
2018-09-19T10:42:35.313Z,55.70
2018-09-19T10:45:04.223Z,56.30
2018-09-19T10:47:32.482Z,61.00
2018-09-19T10:50:00.731Z,57.70
2018-09-19T10:52:28.957Z,57.90
2018-09-19T10:54:57.191Z,53.10
2018-09-19T10:57:25.437Z,53.70
2018-09-19T10:59:53.777Z,53.00
2018-09-19T11:02:22.077Z,52.70
2018-09-19T11:04:50.368Z,52.60
2018-09-19T11:07:18.711Z,50.00
2018-09-19T11:09:46.922Z,49.40
2018-09-19T11:12:15.138Z,49.00
2018-09-19T11:14:43.364Z,40.30
2018-09-19T11:17:11.748Z,42.80
2018-09-19T11:19:40.049Z,43.20
2018-09-19T11:22:08.274Z,42.00
2018-09-19T11:24:36.552Z,41.50
2018-09-19T11:27:05.008Z,41.80
2018-09-19T11:29:33.221Z,37.00
2018-09-19T11:32:01.505Z,39.70
2018-09-19T11:34:29.775Z,38.30
2018-09-19T11:36:58.037Z,39.60
2018-09-19T11:39:26.228Z,39.40
2018-09-19T11:41:54.482Z,38.10
2018-09-19T11:44:23.011Z,39.40
2018-09-19T11:46:51.244Z,38.10
2018-09-19T11:49:19.499Z,37.40
2018-09-19T11:51:47.723Z,36.20
2018-09-19T11:54:16.240Z,35.00
2018-09-19T11:56:44.477Z,34.80
2018-09-19T11:59:12.766Z,34.30
2018-09-19T12:01:40.993Z,33.60
2018-09-19T12:04:09.177Z,32.70
2018-09-19T12:06:37.393Z,32.90
2018-09-19T12:09:08.919Z,33.50
2018-09-19T12:11:43.855Z,33.30
2018-09-19T12:14:12.121Z,33.10
2018-09-19T12:16:40.621Z,32.60
2018-09-19T12:19:08.872Z,33.20
2018-09-19T12:21:38.218Z,33.30
2018-09-19T12:24:06.525Z,32.90
2018-09-19T12:26:34.874Z,33.10
2018-09-19T12:29:03.079Z,33.90
2018-09-19T12:31:31.405Z,34.00
2018-09-19T12:33:59.667Z,33.00
2018-09-19T12:36:27.921Z,32.50
2018-09-19T12:38:56.229Z,32.60
2018-09-19T12:41:24.548Z,33.10
2018-09-19T12:43:52.876Z,32.90
2018-09-19T12:46:21.098Z,32.70
2018-09-19T12:48:49.498Z,32.30
2018-09-19T12:51:17.755Z,32.20
2018-09-19T12:53:45.990Z,32.20
2018-09-19T12:56:14.205Z,32.70
2018-09-19T12:58:42.600Z,31.10
2018-09-19T13:01:10.889Z,30.30
2018-09-19T13:03:39.157Z,30.50
2018-09-19T13:06:07.325Z,30.60
2018-09-19T13:08:35.642Z,30.70
2018-09-19T13:11:03.909Z,30.40
2018-09-19T13:13:32.262Z,30.60
2018-09-19T13:16:00.474Z,30.30
2018-09-19T13:18:28.817Z,30.20
2018-09-19T13:20:57.065Z,30.20
2018-09-19T13:23:25.472Z,30.60
2018-09-19T13:25:53.741Z,30.00
2018-09-19T13:28:22.054Z,29.10
2018-09-19T13:30:50.387Z,29.50
2018-09-19T13:33:18.925Z,29.40
2018-09-19T13:35:47.245Z,29.40
2018-09-19T13:38:15.538Z,29.20
2018-09-19T13:40:43.850Z,29.30
2018-09-19T13:43:12.168Z,28.90
2018-09-19T13:45:40.504Z,28.80
2018-09-19T13:48:09.492Z,28.80
2018-09-19T13:50:43.710Z,28.20
2018-09-19T13:53:11.946Z,28.50
2018-09-19T13:55:40.181Z,28.50
2018-09-19T13:58:08.455Z,29.10
2018-09-19T14:00:36.874Z,27.80
2018-09-19T14:03:05.293Z,28.10
2018-09-19T14:05:33.633Z,28.00
2018-09-19T14:08:01.955Z,27.40
2018-09-19T14:10:30.197Z,27.70
2018-09-19T14:12:58.723Z,27.20
2018-09-19T14:15:27.162Z,27.40
2018-09-19T14:17:55.403Z,27.10
2018-09-19T14:20:23.722Z,26.90
2018-09-19T14:22:52.239Z,27.30
2018-09-19T14:25:20.490Z,26.70
2018-09-19T14:27:48.739Z,26.80
2018-09-19T14:30:17.087Z,26.90
2018-09-19T14:32:45.297Z,26.90
2018-09-19T14:35:13.570Z,26.80
2018-09-19T14:37:42.490Z,26.20
2018-09-19T14:40:10.770Z,26.50
2018-09-19T14:42:39.033Z,26.50
2018-09-19T14:45:07.385Z,26.50
2018-09-19T14:47:36.050Z,26.60
2018-09-19T14:50:04.589Z,26.80
2018-09-19T14:52:32.856Z,27.10
2018-09-19T14:55:01.262Z,26.80
2018-09-19T14:57:29.691Z,26.80
2018-09-19T14:59:57.881Z,26.60
2018-09-19T15:02:30.133Z,26.50
2018-09-19T15:04:58.358Z,27.00
2018-09-19T15:07:26.601Z,27.30
2018-09-19T15:09:54.926Z,27.40
2018-09-19T15:12:23.157Z,27.30
2018-09-19T15:14:51.505Z,27.00
2018-09-19T15:17:19.798Z,26.90
2018-09-19T15:19:47.992Z,26.90
2018-09-19T15:22:16.249Z,26.40
2018-09-19T15:24:44.653Z,26.50
2018-09-19T15:27:13.257Z,26.50
2018-09-19T15:29:41.510Z,26.80
2018-09-19T15:32:10.609Z,26.90
2018-09-19T15:34:38.879Z,26.50
2018-09-19T15:37:07.511Z,26.90
2018-09-19T15:39:35.732Z,27.00
2018-09-19T15:42:04.071Z,27.70
2018-09-19T15:44:32.310Z,30.10
2018-09-19T15:47:00.570Z,31.80
2018-09-19T15:49:28.850Z,33.10
2018-09-19T15:51:57.117Z,33.10
2018-09-19T15:54:25.904Z,33.80
2018-09-19T15:56:54.156Z,33.90
2018-09-19T15:59:22.469Z,34.40
2018-09-19T16:01:50.799Z,35.10
2018-09-19T16:04:19.114Z,35.20
2018-09-19T16:06:47.485Z,35.80
2018-09-19T16:09:15.836Z,36.10
2018-09-19T16:11:44.053Z,35.70
2018-09-19T16:14:12.298Z,35.90
2018-09-19T16:16:40.483Z,35.80
2018-09-19T16:19:08.734Z,35.80
2018-09-19T16:21:36.996Z,36.40
2018-09-19T16:24:05.218Z,36.70
2018-09-19T16:26:33.483Z,36.90
2018-09-19T16:29:01.668Z,37.20
2018-09-19T16:31:30.957Z,37.40
2018-09-19T16:33:59.142Z,37.90
2018-09-19T16:36:27.454Z,38.30
2018-09-19T16:38:55.732Z,38.90
2018-09-19T16:41:23.957Z,39.60
2018-09-19T16:43:52.339Z,39.90
2018-09-19T16:46:20.549Z,40.20
2018-09-19T16:48:48.769Z,40.10
2018-09-19T16:51:17.074Z,40.20
2018-09-19T16:53:45.359Z,40.40
2018-09-19T16:56:13.619Z,40.50
2018-09-19T16:58:41.972Z,40.80
2018-09-19T17:01:10.595Z,41.10
2018-09-19T17:03:39.079Z,41.50
2018-09-19T17:06:07.338Z,41.60
2018-09-19T17:08:35.527Z,41.60
2018-09-19T17:11:03.800Z,42.50
2018-09-19T17:13:32.186Z,42.20
2018-09-19T17:16:00.512Z,41.90
2018-09-19T17:18:28.753Z,43.20
2018-09-19T17:20:57.064Z,42.60
2018-09-19T17:23:25.295Z,42.90
2018-09-19T17:25:53.594Z,43.00
2018-09-19T17:28:21.766Z,43.20
2018-09-19T17:30:50.005Z,43.20
2018-09-19T17:33:18.316Z,43.30
2018-09-19T17:35:46.757Z,43.20
2018-09-19T17:38:15.042Z,42.80
2018-09-19T17:40:44.713Z,43.40
2018-09-19T17:43:13.161Z,43.70
2018-09-19T17:45:41.450Z,43.90
2018-09-19T17:48:09.744Z,44.00
2018-09-19T17:50:37.968Z,44.10
2018-09-19T17:53:06.425Z,44.20
2018-09-19T17:55:34.701Z,44.40
2018-09-19T17:58:03.069Z,44.70
2018-09-19T18:00:31.353Z,44.60
2018-09-19T18:02:59.827Z,44.90
2018-09-19T18:05:28.130Z,44.70
2018-09-19T18:07:56.365Z,45.10
2018-09-19T18:10:24.720Z,45.20
2018-09-19T18:12:52.956Z,45.60
2018-09-19T18:15:21.202Z,45.80
2018-09-19T18:17:49.448Z,45.90
2018-09-19T18:20:17.858Z,46.30
2018-09-19T18:22:46.142Z,46.90
2018-09-19T18:25:14.436Z,47.10
2018-09-19T18:27:42.815Z,47.10
2018-09-19T18:30:11.198Z,47.30
2018-09-19T18:32:39.578Z,48.20
2018-09-19T18:35:08.820Z,47.50
2018-09-19T18:37:37.030Z,47.80
2018-09-19T18:40:06.250Z,48.00
2018-09-19T18:42:34.516Z,48.10
2018-09-19T18:45:02.798Z,48.40
2018-09-19T18:47:31.089Z,48.60
2018-09-19T18:49:59.371Z,48.70
2018-09-19T18:52:27.624Z,49.10
2018-09-19T18:54:55.904Z,49.30
2018-09-19T18:57:24.291Z,49.60
2018-09-19T18:59:52.762Z,49.50
2018-09-19T19:02:21.141Z,49.90
2018-09-19T19:04:49.533Z,50.00
2018-09-19T19:07:17.773Z,50.30
2018-09-19T19:09:46.022Z,50.70
2018-09-19T19:12:14.233Z,50.80
2018-09-19T19:14:42.507Z,51.00
2018-09-19T19:17:10.722Z,51.20
2018-09-19T19:19:38.962Z,51.20
2018-09-19T19:22:07.189Z,51.50
2018-09-19T19:24:35.536Z,51.70
2018-09-19T19:27:03.887Z,51.80
2018-09-19T19:29:32.237Z,51.90
2018-09-19T19:32:00.619Z,52.50
2018-09-19T19:34:28.926Z,53.00
2018-09-19T19:36:57.300Z,53.30
2018-09-19T19:39:25.680Z,53.50
2018-09-19T19:41:54.323Z,53.90
2018-09-19T19:44:22.541Z,53.60
2018-09-19T19:46:50.872Z,54.10
2018-09-19T19:49:19.169Z,54.30
2018-09-19T19:51:47.387Z,54.40
2018-09-19T19:54:15.623Z,54.70
2018-09-19T19:56:43.867Z,55.00
2018-09-19T20:01:46.732Z,55.60
2018-09-19T20:04:14.998Z,55.90
2018-09-19T20:06:43.270Z,55.80
2018-09-19T20:09:11.608Z,56.20
2018-09-19T20:11:39.807Z,56.00
2018-09-19T20:14:08.061Z,56.20
2018-09-19T20:16:36.390Z,56.30
2018-09-19T20:19:04.563Z,56.60
2018-09-19T20:21:32.806Z,56.80
2018-09-19T20:24:01.281Z,57.10
2018-09-19T20:26:29.489Z,57.10
2018-09-19T20:28:57.811Z,57.40
2018-09-19T20:31:26.139Z,57.80
2018-09-19T20:33:55.050Z,58.40
2018-09-19T20:36:23.443Z,58.70
2018-09-19T20:38:51.781Z,58.90
2018-09-19T20:41:20.186Z,59.20
2018-09-19T20:43:48.432Z,59.50
2018-09-19T20:46:16.633Z,59.80
2018-09-19T20:48:44.939Z,59.80
2018-09-19T20:51:13.181Z,60.40
2018-09-19T20:53:41.447Z,60.60
2018-09-19T20:56:09.727Z,60.90
2018-09-19T20:58:37.964Z,60.90
2018-09-19T21:01:06.599Z,60.90
2018-09-19T21:03:34.806Z,60.90
2018-09-19T21:06:03.081Z,60.90
2018-09-19T21:08:31.576Z,60.80
2018-09-19T21:10:59.839Z,61.20
2018-09-19T21:13:28.253Z,61.60
2018-09-19T21:15:56.477Z,61.80
2018-09-19T21:18:24.686Z,62.00
2018-09-19T21:20:53.931Z,62.20
2018-09-19T21:23:22.148Z,62.50
2018-09-19T21:25:50.472Z,62.70
2018-09-19T21:28:18.720Z,63.70
2018-09-19T21:30:46.982Z,63.10
2018-09-19T21:33:15.215Z,63.50
2018-09-19T21:35:43.420Z,63.70
2018-09-19T21:38:11.698Z,63.70
2018-09-19T21:40:39.998Z,63.10
2018-09-19T21:43:08.198Z,63.50
2018-09-19T21:45:36.609Z,63.40
2018-09-19T21:48:04.810Z,63.40
2018-09-19T21:50:33.005Z,63.30
2018-09-19T21:53:01.269Z,63.50
2018-09-19T21:58:04.205Z,63.60
2018-09-19T22:00:32.423Z,64.00
2018-09-19T22:03:00.651Z,64.50
2018-09-19T22:05:28.909Z,64.70
2018-09-19T22:07:57.171Z,65.60
2018-09-19T22:10:25.517Z,65.40
2018-09-19T22:12:53.859Z,65.40
2018-09-19T22:15:22.134Z,65.30
2018-09-19T22:17:50.393Z,65.00
2018-09-19T22:20:18.600Z,65.20
2018-09-19T22:22:46.873Z,65.10
2018-09-19T22:25:15.080Z,65.20
2018-09-19T22:27:43.354Z,65.60
2018-09-19T22:30:11.469Z,65.80
2018-09-19T22:32:39.692Z,65.50
2018-09-19T22:35:07.991Z,65.80
2018-09-19T22:37:36.582Z,65.50
2018-09-19T22:40:04.865Z,65.50
2018-09-19T22:42:33.031Z,65.20
2018-09-19T22:45:01.226Z,65.30
2018-09-19T22:47:29.387Z,65.40
2018-09-19T22:49:57.587Z,65.60
2018-09-19T22:52:25.754Z,65.80
2018-09-19T22:54:53.981Z,65.70
2018-09-19T22:57:22.163Z,66.10
2018-09-19T22:59:50.318Z,66.70
2018-09-19T23:02:18.509Z,66.70
2018-09-19T23:04:46.736Z,66.80
2018-09-19T23:07:14.915Z,66.80
2018-09-19T23:09:43.170Z,67.00
2018-09-19T23:12:11.391Z,67.00
2018-09-19T23:14:39.581Z,67.00
2018-09-19T23:17:07.794Z,66.80
2018-09-19T23:19:35.992Z,66.90
2018-09-19T23:22:04.208Z,66.50
2018-09-19T23:24:32.423Z,66.40
2018-09-19T23:27:00.585Z,66.10
2018-09-19T23:29:28.850Z,66.30
2018-09-19T23:31:57.026Z,66.50
2018-09-19T23:34:25.232Z,66.60
2018-09-19T23:36:53.476Z,66.70
2018-09-19T23:39:21.681Z,66.70
2018-09-19T23:41:49.937Z,66.80
2018-09-19T23:44:18.146Z,66.70
2018-09-19T23:46:46.368Z,66.70
2018-09-19T23:49:14.561Z,66.40
2018-09-19T23:51:42.768Z,66.00
2018-09-19T23:54:10.978Z,65.80
2018-09-19T23:56:39.186Z,65.80
2018-09-19T23:59:07.461Z,65.40
